Freiburg, Germany

2:23 PM CEST on May 28, 2015 (GMT +0200)
Basle-Mulhouse | | Change Station
CLOSE
Current Station
Airport
Location: Basel,
Elevation: 896 ft
Nearby Weather Stations

Elev 896 ft 47.61 °N, 7.51 °E | Updated 23 minutes ago

Partly Cloudy
Partly Cloudy
70 °F
Feels Like 70 °F
N
10
Wind Variable Wind from West

Today
High -- | Low -- °F
--% Chance of Precip.
Yesterday
High -- | Low -- °F
Precip. -- in
5:36 AM 9:15 PM
Waxing Gibbous, 75% visible
Pressure 30.06 in
Visibility 6.2 miles
Clouds Few 5000 ft
Dew Point 46 °F
Humidity 43%
Rainfall 0.00 in
Snow Depth Not available.
UV 9 out of 12
Pollen Not available.
Air Quality Not available.
Flu Activity Not available.
METAR LFSB 281200Z 27009KT 230V310 9999 FEW050 21/08 Q1018 NOSIG

More Conditions Fewer Conditions

Pressure 30.06 in
Visibility 6.2 miles
Clouds Few 5000 ft
Dew Point 46 °F
Humidity 43%
Rainfall 0.00 in
Snow Depth Not available.
UV 9 out of 12
Pollen Not available.
Air Quality Not available.
Flu Activity Not available.
METAR LFSB 281200Z 27009KT 230V310 9999 FEW050 21/08 Q1018 NOSIG

More Conditions Fewer Conditions

10-Day Weather Forecast

Almanac

Astronomy

May. 28, 2015 Rise Set
Actual Time
Civil Twilight
Nautical Twilight
Astronomical Twilight
Moon
Length of Visible Light
Length of Day
Tomorrow will be .
, % of the Moon is Illuminated

Today's Extremes

Country Highs Country Lows

Community

WunderPhotos

Upload Photos

1,824,960 photos uploaded!

WunderBlogs® & News

Nearby

Air Quality

  Air Quality AQ Index Pollutant
Not available.

Snow Depth

Station Depth Elevation

Earthquake Activity

City Distance Mag. Time & Date
Minimum magnitude displayed is 2.5.

Coastal Water Temperatures

Place Temperature

Stations

Nearby Weather Stations

Station Location Temp. Windchill Dew Point Humidity Wind Precip. Elev Updated Type